Time;durP1;ratioP1;P1;durP2;ratioP2;P2;SDS_P1;SDS_P2;PMS_P1;PMS_P2;Temp;Humidity;BMP_temperature;BMP_pressure;BME280_temperature;BME280_humidity;BME280_pressure;Samples;Min_cycle;Max_cycle;Signal;HPM_P1;HPM_P2
2023/11/03 00:01:37;;;;;;;18.42;16.90;;;;;;;10.95;100.00;96275.72;5091706;28;20044;-46
2023/11/03 00:04:08;;;;;;;21.17;19.17;;;;;;;11.09;100.00;96268.13;5091563;28;20024;-46
2023/11/03 00:06:41;;;;;;;78.53;72.60;;;;;;;11.19;100.00;96278.63;5091500;28;20097;-46
2023/11/03 00:09:08;;;;;;;18.30;16.75;;;;;;;11.12;100.00;96274.66;5090415;28;20031;-46
2023/11/03 00:11:35;;;;;;;10.02;9.02;;;;;;;10.94;100.00;96274.13;5091390;28;20020;-46
2023/11/03 00:14:03;;;;;;;1.88;1.17;;;;;;;10.74;100.00;96274.13;5091390;28;20493;-46
2023/11/03 00:16:30;;;;;;;24.13;22.33;;;;;;;10.55;100.00;96287.72;5091168;28;20138;-46
2023/11/03 00:19:00;;;;;;;3.30;2.80;;;;;;;10.59;100.00;96283.53;5090129;28;20077;-46
2023/11/03 00:21:36;;;;;;;4.22;2.67;;;;;;;10.68;100.00;96285.66;5090068;28;20032;-46
2023/11/03 00:24:01;;;;;;;20.33;18.52;;;;;;;10.59;100.00;96293.25;5091480;28;20091;-46
2023/11/03 00:26:27;;;;;;;9.23;7.07;;;;;;;10.62;100.00;96300.59;5093085;28;20107;-46
2023/11/03 00:28:53;;;;;;;7.57;4.78;;;;;;;10.76;100.00;96304.28;5095164;28;20523;-46
2023/11/03 00:31:19;;;;;;;6.32;2.67;;;;;;;10.67;100.00;96310.31;5095131;28;20036;-46
2023/11/03 00:33:45;;;;;;;5.43;4.97;;;;;;;10.58;100.00;96313.47;5095040;28;20093;-46
2023/11/03 00:36:20;;;;;;;63.17;58.38;;;;;;;10.68;100.00;96315.28;5094968;28;20028;-46
2023/11/03 00:38:48;;;;;;;35.40;32.70;;;;;;;10.75;100.00;96317.69;5094978;28;20516;-46
2023/11/03 00:41:14;;;;;;;17.88;16.48;;;;;;;10.84;100.00;96318.72;5093477;28;20035;-46
2023/11/03 00:43:42;;;;;;;5.35;4.10;;;;;;;11.09;100.00;96322.47;5094904;28;20432;-46
2023/11/03 00:46:08;;;;;;;35.25;32.28;;;;;;;11.32;100.00;96314.03;5095051;28;20024;-47
2023/11/03 00:48:34;;;;;;;22.02;20.13;;;;;;;11.57;100.00;96315.09;5093454;28;20074;-46
2023/11/03 00:51:00;;;;;;;34.70;31.23;;;;;;;11.73;100.00;96316.63;5094717;28;20028;-47
2023/11/03 00:53:26;;;;;;;41.65;38.25;;;;;;;11.82;100.00;96324.75;5094685;28;20107;-47
2023/11/03 00:55:52;;;;;;;6.65;4.93;;;;;;;11.96;100.00;96322.38;5094612;28;20028;-47
2023/11/03 00:58:19;;;;;;;32.63;29.75;;;;;;;12.01;100.00;96318.94;5094523;28;20016;-48
2023/11/03 01:00:44;;;;;;;2.67;2.17;;;;;;;12.02;100.00;96320.53;5094675;28;20059;-47
2023/11/03 01:03:10;;;;;;;3.28;1.92;;;;;;;11.85;100.00;96321.59;5094525;28;20054;-48
2023/11/03 01:05:36;;;;;;;6.40;4.68;;;;;;;11.83;100.00;96323.72;5094398;28;20036;-48
2023/11/03 01:08:03;;;;;;;4.15;1.77;;;;;;;11.77;100.00;96322.13;5094366;28;20367;-48
2023/11/03 01:10:29;;;;;;;3.45;1.15;;;;;;;11.88;100.00;96330.78;5094281;28;20039;-48
2023/11/03 01:12:56;;;;;;;3.40;0.80;;;;;;;11.82;100.00;96331.88;5094292;28;20020;-48
2023/11/03 01:15:23;;;;;;;3.53;1.58;;;;;;;11.88;100.00;96333.41;5094040;28;20111;-48
2023/11/03 01:17:50;;;;;;;6.45;1.83;;;;;;;11.73;100.00;96331.59;5094542;28;20024;-48
2023/11/03 01:20:19;;;;;;;5.88;1.77;;;;;;;11.71;100.00;96325.81;5094558;28;20031;-48
2023/11/03 01:22:48;;;;;;;2.92;1.48;;;;;;;11.86;100.00;96327.66;5094141;28;20024;-48
2023/11/03 01:25:18;;;;;;;3.97;2.35;;;;;;;11.80;100.00;96342.63;5094071;28;20024;-47
2023/11/03 01:27:44;;;;;;;24.63;22.17;;;;;;;11.72;100.00;96330.03;5094329;28;20032;-47
2023/11/03 01:30:14;;;;;;;9.30;7.63;;;;;;;11.38;100.00;96334.00;5093920;28;20031;-47
2023/11/03 01:32:39;;;;;;;5.82;4.55;;;;;;;10.91;100.00;96331.63;5092630;28;20024;-47
2023/11/03 01:35:08;;;;;;;1.38;0.80;;;;;;;10.67;100.00;96324.22;5092641;28;20405;-47
2023/11/03 01:37:34;;;;;;;20.15;18.38;;;;;;;10.46;100.00;96328.59;5093307;28;20494;-47
2023/11/03 01:40:06;;;;;;;5.75;5.25;;;;;;;10.38;100.00;96326.47;5093644;28;20035;-47
2023/11/03 01:42:32;;;;;;;7.35;6.57;;;;;;;10.32;100.00;96322.25;5093813;28;20078;-47
2023/11/03 01:44:58;;;;;;;2.70;1.27;;;;;;;10.47;100.00;96324.94;5093676;28;20024;-47
2023/11/03 01:47:24;;;;;;;15.57;14.18;;;;;;;10.45;100.00;96321.00;5093584;28;20032;-47
2023/11/03 01:49:50;;;;;;;7.30;6.63;;;;;;;10.49;100.00;96316.84;5093610;28;20024;-48
2023/11/03 01:52:15;;;;;;;1.20;0.80;;;;;;;10.44;100.00;96322.84;5093522;28;20028;-48
2023/11/03 01:54:42;;;;;;;2.05;0.90;;;;;;;10.66;100.00;96313.97;5093463;28;20107;-48
2023/11/03 01:57:09;;;;;;;24.65;22.63;;;;;;;10.63;100.00;96319.75;5093449;28;20027;-48
2023/11/03 01:59:35;;;;;;;2.30;0.77;;;;;;;10.58;100.00;96312.66;5093277;28;20027;-48
2023/11/03 02:02:04;;;;;;;2.78;1.25;;;;;;;10.40;100.00;96313.91;5093376;28;20052;-47
2023/11/03 02:04:30;;;;;;;72.32;66.40;;;;;;;10.25;100.00;96319.09;5091931;28;20032;-48
2023/11/03 02:06:56;;;;;;;103.53;95.10;;;;;;;10.14;100.00;96319.03;5093230;28;20068;-47
2023/11/03 02:09:22;;;;;;;32.70;30.10;;;;;;;10.08;100.00;96322.69;5093153;28;20030;-48
2023/11/03 02:11:48;;;;;;;78.00;71.20;;;;;;;10.08;100.00;96317.44;5108781;28;20020;-48
2023/11/03 02:14:15;;;;;;;68.78;62.17;;;;;;;10.15;100.00;96314.56;5091782;28;20489;-47
2023/11/03 02:16:41;;;;;;;58.47;52.55;;;;;;;10.16;100.00;96314.34;5091376;28;20058;-47
2023/11/03 02:19:10;;;;;;;66.85;60.40;;;;;;;10.22;100.00;96314.34;5093258;28;20107;-48
2023/11/03 02:21:37;;;;;;;180.00;162.30;;;;;;;10.22;100.00;96322.19;5092861;28;20020;-48
2023/11/03 02:24:08;;;;;;;258.10;235.68;;;;;;;10.30;100.00;96314.69;5092982;28;20024;-47
2023/11/03 02:26:35;;;;;;;52.22;47.10;;;;;;;10.53;100.00;96316.06;5093186;28;20035;-48
2023/11/03 02:29:04;;;;;;;44.97;40.97;;;;;;;10.50;100.00;96313.16;5092740;28;20020;-48
2023/11/03 02:31:33;;;;;;;141.80;127.75;;;;;;;10.61;100.00;96325.25;5092663;28;20051;-48
2023/11/03 02:33:59;;;;;;;195.85;178.55;;;;;;;10.63;100.00;96323.16;5091402;28;20566;-48
2023/11/03 02:36:25;;;;;;;222.43;202.00;;;;;;;10.82;100.00;96312.19;5091358;28;20024;-47
2023/11/03 02:38:52;;;;;;;57.13;51.65;;;;;;;11.69;100.00;96320.84;5092690;28;20029;-48
2023/11/03 02:41:19;;;;;;;21.75;19.65;;;;;;;12.50;100.00;96313.78;5092455;28;20451;-48
2023/11/03 02:43:45;;;;;;;7.35;4.38;;;;;;;13.05;100.00;96320.81;5092600;28;20020;-48
2023/11/03 02:46:11;;;;;;;5.75;4.38;;;;;;;12.75;100.00;96322.56;5092472;28;20524;-48
2023/11/03 02:48:37;;;;;;;1.17;0.90;;;;;;;12.33;100.00;96327.25;5092284;28;20017;-47
2023/11/03 02:51:03;;;;;;;3.30;1.95;;;;;;;11.96;100.00;96338.16;5090459;28;20391;-48
2023/11/03 02:53:30;;;;;;;7.85;6.57;;;;;;;11.75;100.00;96337.38;5091082;28;20032;-48
2023/11/03 02:55:56;;;;;;;7.07;5.55;;;;;;;11.64;100.00;96338.44;5092288;28;20028;-48
2023/11/03 02:58:26;;;;;;;14.35;13.15;;;;;;;11.54;100.00;96347.13;5090984;28;20022;-48
2023/11/03 03:00:53;;;;;;;9.23;8.25;;;;;;;11.45;100.00;96352.13;5092260;28;20024;-48
2023/11/03 03:03:19;;;;;;;8.38;7.60;;;;;;;11.38;100.00;96359.47;5092159;28;20028;-48
2023/11/03 03:05:45;;;;;;;8.75;7.88;;;;;;;11.25;100.00;96363.41;5092178;28;20569;-48
2023/11/03 03:08:11;;;;;;;5.20;4.03;;;;;;;11.09;100.00;96356.56;5090880;28;20055;-48
2023/11/03 03:10:38;;;;;;;8.20;7.45;;;;;;;10.95;100.00;96356.28;5092137;28;20064;-48
2023/11/03 03:13:04;;;;;;;2.58;1.70;;;;;;;10.82;100.00;96359.41;5092111;28;20073;-48
2023/11/03 03:15:30;;;;;;;4.10;2.67;;;;;;;10.72;100.00;96357.53;5091948;28;20040;-48
2023/11/03 03:17:56;;;;;;;6.95;6.40;;;;;;;10.58;100.00;96358.03;5092104;28;20104;-48
2023/11/03 03:20:23;;;;;;;4.70;3.10;;;;;;;10.51;100.00;96365.34;5091917;28;20099;-48
2023/11/03 03:22:49;;;;;;;5.95;1.80;;;;;;;10.51;100.00;96362.72;5091989;28;20489;-48
2023/11/03 03:25:15;;;;;;;6.45;2.30;;;;;;;10.56;100.00;96364.56;5092015;28;20559;-48
2023/11/03 03:27:41;;;;;;;6.10;5.25;;;;;;;10.65;100.00;96368.28;5091917;28;20107;-48
2023/11/03 03:30:08;;;;;;;7.05;6.32;;;;;;;10.73;100.00;96356.50;5092094;28;20028;-48
2023/11/03 03:32:34;;;;;;;8.32;7.20;;;;;;;10.70;100.00;96363.03;5091872;28;20077;-48
2023/11/03 03:35:00;;;;;;;2.55;1.67;;;;;;;10.65;100.00;96365.66;5091857;28;20455;-48
2023/11/03 03:37:26;;;;;;;8.07;7.38;;;;;;;10.67;100.00;96366.19;5091985;28;20024;-48
2023/11/03 03:39:52;;;;;;;1.60;1.30;;;;;;;10.71;100.00;96361.22;5091745;28;20553;-48
2023/11/03 03:42:19;;;;;;;1.17;0.98;;;;;;;10.69;100.00;96369.34;5090552;28;20020;-48
2023/11/03 03:44:46;;;;;;;4.80;1.33;;;;;;;10.61;100.00;96353.31;5091741;28;20490;-48
2023/11/03 03:47:12;;;;;;;3.13;2.60;;;;;;;10.56;100.00;96352.25;5091725;28;20043;-48
2023/11/03 03:49:38;;;;;;;2.55;2.28;;;;;;;10.55;100.00;96353.28;5091708;28;20025;-48
2023/11/03 03:52:06;;;;;;;5.43;4.93;;;;;;;10.54;100.00;96358.78;5091676;28;20069;-48
2023/11/03 03:54:33;;;;;;;11.60;10.45;;;;;;;10.54;100.00;96370.09;5091635;28;20051;-48
2023/11/03 03:57:00;;;;;;;21.35;19.27;;;;;;;10.66;100.00;96374.31;5091641;28;20028;-48
2023/11/03 03:59:25;;;;;;;7.22;4.65;;;;;;;10.77;100.00;96368.84;5091631;28;20013;-48
2023/11/03 04:01:51;;;;;;;2.83;1.90;;;;;;;10.77;100.00;96370.69;5094135;28;20106;-48
2023/11/03 04:04:18;;;;;;;17.13;15.73;;;;;;;10.74;100.00;96364.09;5095578;28;20024;-48
2023/11/03 04:06:47;;;;;;;3.60;2.78;;;;;;;10.75;100.00;96362.28;5094257;28;20111;-48
2023/11/03 04:09:13;;;;;;;6.90;6.20;;;;;;;10.70;100.00;96372.75;5095587;28;20039;-48
2023/11/03 04:11:39;;;;;;;2.67;1.60;;;;;;;10.72;100.00;96374.06;5095760;28;20071;-48
2023/11/03 04:14:05;;;;;;;2.75;1.50;;;;;;;10.75;100.00;96368.31;5095471;28;20017;-48
2023/11/03 04:16:33;;;;;;;7.15;6.43;;;;;;;10.74;100.00;96352.81;5095071;28;20043;-48
2023/11/03 04:18:58;;;;;;;9.00;5.07;;;;;;;10.75;100.00;96363.06;5094075;28;20031;-48
2023/11/03 04:21:24;;;;;;;6.25;5.15;;;;;;;10.73;100.00;96367.78;5095195;28;20016;-48
2023/11/03 04:23:50;;;;;;;4.97;4.05;;;;;;;10.70;100.00;96364.88;5095295;28;20039;-48
2023/11/03 04:26:16;;;;;;;13.60;12.27;;;;;;;10.66;100.00;96374.31;5095196;28;20012;-48
2023/11/03 04:28:41;;;;;;;8.55;7.72;;;;;;;10.58;100.00;96373.78;5095185;28;20028;-48
2023/11/03 04:31:07;;;;;;;1.10;0.90;;;;;;;10.53;100.00;96376.38;5095161;28;20024;-48
2023/11/03 04:33:33;;;;;;;1.98;1.00;;;;;;;10.46;100.00;96380.25;5095093;28;20051;-48
2023/11/03 04:36:00;;;;;;;2.50;0.73;;;;;;;10.47;100.00;96385.25;5093724;28;20031;-48
2023/11/03 04:38:26;;;;;;;2.88;1.60;;;;;;;10.47;100.00;96382.63;5095006;28;20085;-48
2023/11/03 04:40:51;;;;;;;1.83;1.63;;;;;;;10.44;100.00;96380.50;5094845;28;20016;-48
2023/11/03 04:43:17;;;;;;;1.13;1.00;;;;;;;10.38;100.00;96373.69;5094900;28;20027;-48
2023/11/03 04:45:44;;;;;;;12.43;11.35;;;;;;;10.30;100.00;96376.78;5094835;28;20020;-48
2023/11/03 04:48:10;;;;;;;14.25;12.80;;;;;;;10.26;100.00;96378.31;5094747;28;20051;-48
2023/11/03 04:50:36;;;;;;;4.40;3.55;;;;;;;10.34;100.00;96378.66;5094674;28;20067;-48
2023/11/03 04:53:02;;;;;;;3.78;0.90;;;;;;;10.39;100.00;96378.66;5094766;28;20509;-48
2023/11/03 04:55:28;;;;;;;3.03;1.77;;;;;;;10.44;100.00;96367.41;5094642;28;20020;-48
2023/11/03 04:57:53;;;;;;;1.90;0.95;;;;;;;10.88;100.00;96366.25;5094625;28;20020;-47
2023/11/03 05:00:19;;;;;;;4.72;0.73;;;;;;;10.69;100.00;96377.22;5094479;28;20064;-48
2023/11/03 05:02:45;;;;;;;4.57;2.97;;;;;;;10.39;100.00;96367.41;5094493;28;20020;-48
2023/11/03 05:05:11;;;;;;;3.50;0.90;;;;;;;10.70;100.00;96362.25;5094487;28;20430;-48
2023/11/03 05:07:40;;;;;;;9.52;8.52;;;;;;;10.48;100.00;96367.69;5094413;28;20024;-48
2023/11/03 05:10:07;;;;;;;2.38;0.93;;;;;;;10.18;100.00;96369.91;5094376;28;20107;-48
2023/11/03 05:12:33;;;;;;;4.28;2.55;;;;;;;10.11;100.00;96373.78;5091990;28;20494;-48
2023/11/03 05:14:58;;;;;;;3.75;1.60;;;;;;;10.35;100.00;96379.44;5094317;28;20031;-48
2023/11/03 05:17:24;;;;;;;10.88;1.83;;;;;;;10.96;100.00;96371.75;5092672;28;20052;-48
2023/11/03 05:19:51;;;;;;;18.85;2.67;;;;;;;11.95;100.00;96365.47;5094142;28;20118;-48
2023/11/03 05:22:20;;;;;;;35.83;3.60;;;;;;;12.80;100.00;96367.31;5094125;28;20012;-48
2023/11/03 05:24:46;;;;;;;32.67;3.45;;;;;;;13.38;100.00;96367.47;5093058;28;20032;-48
2023/11/03 05:27:13;;;;;;;38.53;4.78;;;;;;;13.71;100.00;96364.31;5094005;28;20086;-48
2023/11/03 05:29:42;;;;;;;13.43;1.75;;;;;;;13.69;100.00;96371.72;5093967;28;20389;-48
2023/11/03 05:32:09;;;;;;;18.95;5.05;;;;;;;13.71;100.00;96372.22;5092640;28;20034;-48
2023/11/03 05:34:35;;;;;;;10.73;3.83;;;;;;;13.49;100.00;96376.09;5075754;28;20032;-48
2023/11/03 05:37:01;;;;;;;6.15;3.13;;;;;;;13.07;100.00;96371.34;5092539;28;20043;-48
2023/11/03 05:39:27;;;;;;;3.72;0.90;;;;;;;12.81;100.00;96368.88;5093738;28;20060;-48
2023/11/03 05:41:53;;;;;;;2.30;0.82;;;;;;;12.55;100.00;96368.97;5092667;28;20027;-48
2023/11/03 05:44:18;;;;;;;2.88;0.60;;;;;;;11.91;97.53;96367.88;5092385;28;20059;-48
2023/11/03 05:46:44;;;;;;;2.65;0.70;;;;;;;11.30;97.63;96367.88;5092385;28;20552;-48
2023/11/03 05:49:10;;;;;;;4.78;1.17;;;;;;;10.82;98.42;96359.41;5093617;28;20034;-48
2023/11/03 05:51:36;;;;;;;1.60;1.33;;;;;;;10.47;99.36;96358.25;5093523;28;20062;-48
2023/11/03 05:54:02;;;;;;;3.80;0.73;;;;;;;10.14;98.73;96360.16;5092231;28;20111;-48
2023/11/03 05:56:28;;;;;;;3.85;1.10;;;;;;;9.84;96.75;96352.91;5093444;28;20478;-48
2023/11/03 05:58:54;;;;;;;10.90;9.60;;;;;;;9.59;90.28;96349.09;5093409;28;20165;-48
2023/11/03 06:01:19;;;;;;;4.80;2.45;;;;;;;9.35;91.13;96349.44;5091961;28;20047;-48
2023/11/03 06:03:46;;;;;;;6.75;3.88;;;;;;;9.13;90.83;96356.59;5092028;28;20062;-48
2023/11/03 06:06:12;;;;;;;4.10;2.08;;;;;;;8.87;93.43;96360.78;5093334;28;20059;-48
2023/11/03 06:08:38;;;;;;;1.90;1.60;;;;;;;8.64;93.29;96373.13;5091965;28;20057;-48
2023/11/03 06:11:04;;;;;;;5.15;2.13;;;;;;;8.46;94.22;96376.06;5093188;28;20012;-48
2023/11/03 06:13:30;;;;;;;4.85;0.80;;;;;;;8.30;95.34;96377.66;5093146;28;20032;-48
2023/11/03 06:15:56;;;;;;;2.45;2.25;;;;;;;8.22;97.83;96376.25;5091802;28;20040;-48
2023/11/03 06:18:22;;;;;;;9.55;8.60;;;;;;;8.29;100.00;96366.41;5091741;28;20563;-48
2023/11/03 06:20:48;;;;;;;36.15;32.63;;;;;;;8.31;100.00;96379.22;5092982;28;20032;-48
2023/11/03 06:23:13;;;;;;;9.50;6.65;;;;;;;8.46;100.00;96382.06;5092918;28;20022;-47
2023/11/03 06:25:39;;;;;;;13.05;3.45;;;;;;;8.61;100.00;96386.66;5091556;28;20038;-48
2023/11/03 06:28:07;;;;;;;9.23;6.93;;;;;;;8.79;100.00;96382.94;5093010;28;20016;-47
2023/11/03 06:30:32;;;;;;;4.70;1.50;;;;;;;9.43;100.00;96384.06;5092907;28;20035;-48
2023/11/03 06:32:58;;;;;;;11.30;2.30;;;;;;;9.68;100.00;96373.78;5091536;28;20585;-48
2023/11/03 06:35:24;;;;;;;7.28;1.60;;;;;;;9.74;100.00;96379.88;5091468;28;20066;-48
2023/11/03 06:37:50;;;;;;;31.15;23.08;;;;;;;9.90;100.00;96381.53;5092799;28;20398;-48
2023/11/03 06:40:15;;;;;;;23.70;10.75;;;;;;;10.15;100.00;96387.97;5092579;28;20024;-48
2023/11/03 06:42:41;;;;;;;13.43;7.88;;;;;;;10.51;100.00;96383.72;5091321;28;20107;-47
2023/11/03 06:45:08;;;;;;;11.93;3.28;;;;;;;10.53;100.00;96380.84;5093144;28;20043;-48
2023/11/03 06:47:35;;;;;;;3.70;1.50;;;;;;;10.48;100.00;96381.59;5092525;28;20390;-48
2023/11/03 06:50:00;;;;;;;11.30;2.35;;;;;;;10.33;100.00;96384.94;5092448;28;20070;-48
2023/11/03 06:52:26;;;;;;;9.50;3.75;;;;;;;10.37;100.00;96387.84;5092504;28;20043;-48
2023/11/03 06:54:52;;;;;;;4.50;1.90;;;;;;;10.30;96.69;96382.84;5092466;28;20525;-48
2023/11/03 06:57:18;;;;;;;12.63;8.43;;;;;;;10.41;96.18;96378.41;5092359;28;20382;-48
2023/11/03 06:59:43;;;;;;;22.60;15.10;;;;;;;10.49;94.58;96383.16;5092242;28;20448;-48
2023/11/03 07:02:12;;;;;;;12.65;10.82;;;;;;;10.50;90.85;96378.72;5092263;28;20452;-48
2023/11/03 07:04:43;;;;;;;4.00;3.22;;;;;;;10.48;92.72;96384.19;5090911;28;20025;-48
2023/11/03 07:07:09;;;;;;;6.65;3.13;;;;;;;10.59;95.25;96390.28;5092139;28;20381;-48
2023/11/03 07:09:35;;;;;;;11.20;4.68;;;;;;;10.99;97.88;96384.38;5092154;28;20024;-48
2023/11/03 07:12:01;;;;;;;5.80;2.35;;;;;;;11.24;93.68;96382.84;5090858;28;20023;-48
2023/11/03 07:14:29;;;;;;;7.35;3.03;;;;;;;11.27;93.98;96387.56;5090750;28;20375;-48
2023/11/03 07:16:58;;;;;;;5.93;2.10;;;;;;;11.09;89.05;96388.06;5090331;28;20040;-48
2023/11/03 07:19:24;;;;;;;6.95;2.17;;;;;;;10.72;88.28;96404.75;5090998;28;20413;-48
2023/11/03 07:21:54;;;;;;;4.75;1.50;;;;;;;10.28;87.74;96407.69;5091870;28;20036;-48
2023/11/03 07:24:23;;;;;;;12.68;3.90;;;;;;;9.99;91.27;96408.03;5092020;28;20443;-48
2023/11/03 07:26:52;;;;;;;2.63;0.90;;;;;;;9.85;89.48;96412.16;5091953;28;20031;-48
2023/11/03 07:29:18;;;;;;;3.28;1.23;;;;;;;9.60;89.38;96405.69;5092222;28;20093;-48
2023/11/03 07:31:45;;;;;;;8.48;1.92;;;;;;;9.76;92.17;96412.63;5092210;28;20478;-48
2023/11/03 07:34:10;;;;;;;8.20;1.75;;;;;;;9.79;91.72;96408.69;5090566;28;20548;-48
2023/11/03 07:36:36;;;;;;;3.05;1.05;;;;;;;9.72;89.04;96406.31;5091227;28;20059;-48
2023/11/03 07:39:06;;;;;;;2.47;1.15;;;;;;;9.61;88.01;96407.25;5091827;28;20063;-48
2023/11/03 07:41:36;;;;;;;1.30;0.70;;;;;;;9.57;89.53;96414.03;5091660;28;20031;-48
2023/11/03 07:44:02;;;;;;;4.03;1.88;;;;;;;9.78;92.11;96415.78;5090627;28;20051;-48
2023/11/03 07:46:33;;;;;;;2.78;1.48;;;;;;;10.13;90.26;96421.50;5090413;28;20024;-48
2023/11/03 07:49:01;;;;;;;2.72;1.42;;;;;;;10.46;90.71;96412.50;5091847;28;20107;-48
2023/11/03 07:51:29;;;;;;;2.75;1.17;;;;;;;11.02;92.44;96398.03;5091904;28;20024;-48
2023/11/03 07:53:55;;;;;;;3.47;1.08;;;;;;;11.43;89.60;96400.69;5091662;28;20030;-48
2023/11/03 07:56:21;;;;;;;4.47;1.35;;;;;;;11.56;87.97;96397.56;5091696;28;20455;-48
2023/11/03 07:58:48;;;;;;;10.20;2.28;;;;;;;11.72;87.82;96386.00;5091698;28;20024;-48
2023/11/03 08:01:14;;;;;;;8.30;1.30;;;;;;;12.20;85.27;96385.69;5091780;28;20472;-48
2023/11/03 08:03:41;;;;;;;6.25;1.20;;;;;;;12.57;87.33;96387.13;5091658;28;20056;-48
2023/11/03 08:06:07;;;;;;;2.75;1.08;;;;;;;12.68;86.09;96396.56;5091655;28;20024;-48
2023/11/03 08:08:34;;;;;;;8.60;1.85;;;;;;;12.78;86.48;96399.16;5091583;28;20020;-48
2023/11/03 08:11:03;;;;;;;6.25;4.40;;;;;;;12.85;86.86;96404.13;5091542;28;20140;-48
2023/11/03 08:13:29;;;;;;;15.10;6.15;;;;;;;12.53;83.60;96415.81;5091538;28;20012;-48
2023/11/03 08:15:56;;;;;;;7.25;2.03;;;;;;;12.58;86.10;96417.66;5090002;28;20071;-48
2023/11/03 08:18:21;;;;;;;9.48;3.38;;;;;;;12.96;86.47;96429.34;5090187;28;20032;-48
2023/11/03 08:20:47;;;;;;;8.07;2.10;;;;;;;13.52;84.13;96440.63;5091335;28;20031;-48
2023/11/03 08:23:16;;;;;;;8.75;2.72;;;;;;;14.66;82.17;96433.28;5091690;28;20024;-48
2023/11/03 08:25:45;;;;;;;13.93;2.17;;;;;;;16.54;79.97;96425.41;5090081;28;20145;-48
2023/11/03 08:28:12;;;;;;;4.40;2.00;;;;;;;17.72;60.59;96425.56;5090083;28;20497;-48
2023/11/03 08:30:41;;;;;;;4.28;1.73;;;;;;;18.26;59.64;96436.22;5091365;28;20024;-49
2023/11/03 08:33:07;;;;;;;8.52;3.30;;;;;;;19.00;58.84;96424.94;5091341;28;20024;-46
2023/11/03 08:35:34;;;;;;;6.10;1.70;;;;;;;19.57;59.40;96421.34;5091286;28;20107;-46
2023/11/03 08:38:01;;;;;;;9.98;4.13;;;;;;;20.07;54.48;96412.06;5091298;28;20027;-46
2023/11/03 08:40:27;;;;;;;1.23;0.80;;;;;;;20.27;50.28;96413.25;5091116;28;20024;-46
2023/11/03 08:42:54;;;;;;;6.97;0.98;;;;;;;20.15;51.29;96409.38;5089964;28;20031;-46
2023/11/03 08:45:20;;;;;;;2.25;1.45;;;;;;;20.35;49.06;96417.78;5091139;28;20099;-46
2023/11/03 08:47:46;;;;;;;4.60;1.38;;;;;;;20.63;52.38;96415.47;5091935;28;20111;-46
2023/11/03 08:50:15;;;;;;;3.75;0.73;;;;;;;20.84;52.40;96414.75;5093452;28;20020;-46
2023/11/03 08:52:41;;;;;;;1.58;0.60;;;;;;;20.94;50.86;96414.38;5094720;28;20027;-46
2023/11/03 08:55:08;;;;;;;7.65;1.25;;;;;;;21.35;50.95;96404.84;5076510;28;20020;-46
2023/11/03 08:57:35;;;;;;;4.28;1.35;;;;;;;21.89;48.08;96412.06;5094684;28;20081;-46
2023/11/03 09:00:09;;;;;;;6.78;1.45;;;;;;;21.79;48.58;96413.25;5094562;28;20027;-46
2023/11/03 09:02:40;;;;;;;3.67;2.83;;;;;;;21.88;52.88;96413.94;5093449;28;20056;-46
2023/11/03 09:05:09;;;;;;;2.90;1.80;;;;;;;21.71;39.61;96414.09;5093214;28;20387;-46
2023/11/03 09:07:35;;;;;;;4.50;0.80;;;;;;;21.39;45.67;96412.94;5094382;28;20024;-46
2023/11/03 09:10:06;;;;;;;9.18;1.58;;;;;;;21.66;46.17;96415.09;5094357;28;20020;-46
2023/11/03 09:12:35;;;;;;;2.30;1.20;;;;;;;20.92;48.35;96424.56;5094397;28;20028;-46
2023/11/03 09:15:05;;;;;;;0.95;0.75;;;;;;;21.19;50.41;96438.50;5094292;28;20063;-46
2023/11/03 09:17:32;;;;;;;1.05;0.52;;;;;;;21.32;48.04;96426.81;5094084;28;20051;-46
2023/11/03 09:20:00;;;;;;;3.72;1.55;;;;;;;21.94;48.83;96423.31;5094194;28;20025;-46
2023/11/03 09:22:27;;;;;;;1.80;1.55;;;;;;;22.31;45.07;96426.09;5094424;28;20055;-46
2023/11/03 09:24:56;;;;;;;10.40;8.75;;;;;;;22.41;46.32;96434.78;5094208;28;20044;-46
2023/11/03 09:27:25;;;;;;;1.90;1.10;;;;;;;22.60;43.31;96426.25;5094037;28;20509;-46
2023/11/03 09:29:51;;;;;;;6.20;3.08;;;;;;;23.06;45.05;96416.19;5094076;28;20489;-46
2023/11/03 09:32:17;;;;;;;3.33;1.20;;;;;;;23.40;42.89;96430.16;5093896;28;20052;-46
2023/11/03 09:34:46;;;;;;;3.90;1.35;;;;;;;23.67;44.00;96431.31;5092681;28;20066;-46
2023/11/03 09:37:13;;;;;;;1.70;1.08;;;;;;;24.03;42.66;96432.28;5093875;28;20017;-46
2023/11/03 09:39:39;;;;;;;2.13;1.05;;;;;;;24.02;42.24;96434.16;5092565;28;20367;-47
2023/11/03 09:42:06;;;;;;;2.25;1.10;;;;;;;23.70;40.71;96436.75;5092389;28;20521;-46
2023/11/03 09:44:32;;;;;;;8.20;1.63;;;;;;;23.63;41.20;96436.56;5093841;28;20130;-47
2023/11/03 09:47:03;;;;;;;1.23;0.70;;;;;;;23.42;41.49;96430.59;5093632;28;20024;-46
2023/11/03 09:49:30;;;;;;;1.15;0.57;;;;;;;23.47;41.55;96431.13;5092401;28;20024;-46
2023/11/03 09:52:09;;;;;;;2.80;1.00;;;;;;;23.45;42.26;96438.72;5093663;28;20031;-46
2023/11/03 09:54:35;;;;;;;1.98;0.57;;;;;;;;;;5093601;28;20077;-46
2023/11/03 09:57:08;;;;;;;3.08;0.82;;;;;;;23.26;43.14;96430.53;5093742;28;20021;-46
2023/11/03 09:59:35;;;;;;;2.83;0.60;;;;;;;23.47;41.50;96433.81;5091710;28;20032;-46
2023/11/03 10:02:17;;;;;;;3.17;0.70;;;;;;;23.54;43.32;96435.91;5093266;28;20027;-46
2023/11/03 10:04:43;;;;;;;3.75;1.17;;;;;;;23.71;44.61;96430.28;5092357;28;20123;-46
2023/11/03 10:07:10;;;;;;;3.67;0.88;;;;;;;24.41;44.84;96436.28;5091946;28;20142;-47
2023/11/03 10:09:37;;;;;;;1.27;0.60;;;;;;;24.38;36.77;96435.06;5093298;28;20028;-46
2023/11/03 10:12:06;;;;;;;1.48;0.68;;;;;;;23.14;37.70;96434.03;5093203;28;20039;-46
2023/11/03 10:14:31;;;;;;;6.30;0.90;;;;;;;22.89;41.84;96428.66;5093198;28;20501;-47
2023/11/03 10:16:57;;;;;;;1.67;0.45;;;;;;;23.45;39.23;96429.94;5096957;28;20126;-46
2023/11/03 10:19:25;;;;;;;6.05;2.17;;;;;;;23.15;38.09;96430.22;5091837;28;20044;-46
2023/11/03 10:21:51;;;;;;;4.90;4.50;;;;;;;23.31;39.23;96433.75;5092939;28;20529;-46
2023/11/03 10:24:17;;;;;;;1.85;0.60;;;;;;;23.07;36.41;96426.56;5091672;28;20031;-46
2023/11/03 10:26:44;;;;;;;2.40;0.80;;;;;;;22.57;37.42;96427.66;5092940;28;20020;-46
2023/11/03 10:29:15;;;;;;;3.72;1.10;;;;;;;22.25;37.23;96429.31;5093124;28;20024;-46
2023/11/03 10:31:46;;;;;;;2.58;0.70;;;;;;;21.78;39.92;96426.94;5092721;28;20023;-46
2023/11/03 10:34:15;;;;;;;0.80;0.60;;;;;;;21.77;40.87;96430.72;5092805;28;20089;-46
2023/11/03 10:36:41;;;;;;;0.70;0.60;;;;;;;21.74;39.87;96422.25;5074738;28;20125;-46
2023/11/03 10:39:07;;;;;;;2.08;1.30;;;;;;;20.82;36.73;96412.38;5091394;28;20084;-46
2023/11/03 10:41:33;;;;;;;4.55;1.00;;;;;;;20.29;39.94;96419.06;5091313;28;20440;-46
2023/11/03 10:44:01;;;;;;;4.47;1.65;;;;;;;20.25;41.00;96418.13;5092596;28;20157;-46
2023/11/03 10:46:38;;;;;;;8.77;5.00;;;;;;;20.14;40.05;96413.16;5091187;28;20024;-46
2023/11/03 10:49:31;;;;;;;8.65;4.72;;;;;;;20.19;40.46;96422.06;5092588;28;20085;-46
2023/11/03 10:52:21;;;;;;;3.35;1.35;;;;;;;20.36;38.96;96416.66;5086055;28;20043;-46
2023/11/03 10:54:53;;;;;;;2.33;0.85;;;;;;;20.61;35.87;96423.03;5092838;28;20016;-46
2023/11/03 10:57:19;;;;;;;1.98;0.50;;;;;;;21.05;37.78;96418.22;5092449;28;20113;-46
2023/11/03 10:59:49;;;;;;;2.08;0.85;;;;;;;21.66;38.02;96412.44;5091069;28;20482;-46
2023/11/03 11:02:37;;;;;;;2.45;1.40;;;;;;;22.46;37.85;96408.63;5091042;28;20032;-46
2023/11/03 11:05:19;;;;;;;2.30;0.80;;;;;;;22.79;35.99;96407.72;5092136;28;20031;-46
2023/11/03 11:07:53;;;;;;;1.15;0.73;;;;;;;22.08;33.55;96395.53;5091069;28;20402;-46
2023/11/03 11:10:34;;;;;;;3.35;1.30;;;;;;;21.34;36.70;96390.69;5091438;28;20393;-46
2023/11/03 11:13:00;;;;;;;2.17;1.08;;;;;;;21.32;34.67;96378.78;5074103;28;20418;-46
2023/11/03 11:15:26;;;;;;;2.65;2.45;;;;;;;21.10;36.88;96383.34;5090738;28;20493;-46
2023/11/03 11:17:52;;;;;;;1.27;1.08;;;;;;;21.13;35.58;96390.72;5090566;28;20132;-46
2023/11/03 11:20:19;;;;;;;6.15;3.65;;;;;;;20.87;36.84;96366.91;5090660;28;20498;-46
2023/11/03 11:22:53;;;;;;;2.55;1.60;;;;;;;20.86;36.90;96388.53;5092010;28;20099;-46
2023/11/03 11:25:20;;;;;;;2.25;1.63;;;;;;;21.37;36.75;96386.63;5090832;28;20053;-46
2023/11/03 11:27:51;;;;;;;1.98;1.52;;;;;;;21.14;35.78;96378.91;5091946;28;20059;-46